createdAt,value
2018-11-04T00:00:56.955Z,13.38
2018-11-04T00:03:26.942Z,13.60
2018-11-04T00:05:56.619Z,13.68
2018-11-04T00:08:26.265Z,12.90
2018-11-04T00:10:55.763Z,14.65
2018-11-04T00:13:25.382Z,14.68
2018-11-04T00:15:54.838Z,15.03
2018-11-04T00:18:24.352Z,15.03
2018-11-04T00:20:55.001Z,14.40
2018-11-04T00:23:24.541Z,14.28
2018-11-04T00:25:54.172Z,13.70
2018-11-04T00:28:23.758Z,14.28
2018-11-04T00:30:53.326Z,14.38
2018-11-04T00:33:22.936Z,14.98
2018-11-04T00:35:58.742Z,13.93
2018-11-04T00:38:28.267Z,14.68
2018-11-04T00:40:57.795Z,14.13
2018-11-04T00:43:27.461Z,14.38
2018-11-04T00:45:56.979Z,14.23
2018-11-04T00:48:26.623Z,14.38
2018-11-04T00:50:56.177Z,14.05
2018-11-04T00:53:25.806Z,14.23
2018-11-04T00:55:56.298Z,13.55
2018-11-04T00:58:26.684Z,14.45
2018-11-04T01:00:56.373Z,14.00
2018-11-04T01:03:25.912Z,13.53
2018-11-04T01:05:55.502Z,13.75
2018-11-04T01:08:25.088Z,14.23
2018-11-04T01:10:54.642Z,13.50
2018-11-04T01:13:24.197Z,15.03
2018-11-04T01:15:53.666Z,14.47
2018-11-04T01:18:23.211Z,14.93
2018-11-04T01:20:52.624Z,13.62
2018-11-04T01:23:22.132Z,14.50
2018-11-04T01:25:51.748Z,14.13
2018-11-04T01:28:21.341Z,14.78
2018-11-04T01:30:50.899Z,14.03
2018-11-04T01:33:20.534Z,14.80
2018-11-04T01:35:50.302Z,14.63
2018-11-04T01:38:19.979Z,14.18
2018-11-04T01:40:49.739Z,16.05
2018-11-04T01:43:19.268Z,16.75
2018-11-04T01:45:48.980Z,13.72
2018-11-04T01:48:18.574Z,14.38
2018-11-04T01:50:48.256Z,14.10
2018-11-04T01:53:17.815Z,14.15
2018-11-04T01:55:47.284Z,14.45
2018-11-04T01:58:16.832Z,13.50
2018-11-04T02:00:46.198Z,14.80
2018-11-04T02:03:15.729Z,16.73
2018-11-04T02:05:45.398Z,14.78
2018-11-04T02:08:14.960Z,15.48
2018-11-04T02:10:44.462Z,14.28
2018-11-04T02:13:13.977Z,14.87
2018-11-04T02:15:43.571Z,13.88
2018-11-04T02:18:13.092Z,13.90
2018-11-04T02:20:42.685Z,16.07
2018-11-04T02:23:12.120Z,14.83
2018-11-04T02:25:41.683Z,15.25
2018-11-04T02:28:11.294Z,13.75
2018-11-04T02:30:40.947Z,13.72
2018-11-04T02:33:10.471Z,14.18
2018-11-04T02:35:40.019Z,14.20
2018-11-04T02:38:09.453Z,14.55
2018-11-04T02:40:39.043Z,14.90
2018-11-04T02:43:08.682Z,14.47
2018-11-04T02:45:38.298Z,15.75
2018-11-04T02:48:07.831Z,16.02
2018-11-04T02:50:37.520Z,14.50
2018-11-04T02:53:07.311Z,14.33
2018-11-04T02:55:36.814Z,15.05
2018-11-04T02:58:06.562Z,15.00
2018-11-04T03:00:36.175Z,14.53
2018-11-04T03:03:06.262Z,14.55
2018-11-04T03:05:35.846Z,14.65
2018-11-04T03:08:05.473Z,14.75
2018-11-04T03:10:34.918Z,14.98
2018-11-04T03:13:04.417Z,15.08
2018-11-04T03:15:34.090Z,14.40
2018-11-04T03:18:10.288Z,14.45
2018-11-04T03:20:40.058Z,15.08
2018-11-04T03:23:09.792Z,16.32
2018-11-04T03:25:39.783Z,14.30
2018-11-04T03:28:10.504Z,16.73
2018-11-04T03:30:40.323Z,17.77
2018-11-04T03:33:10.395Z,15.40
2018-11-04T03:35:40.071Z,15.38
2018-11-04T03:38:09.882Z,15.18
2018-11-04T03:40:39.446Z,14.80
2018-11-04T03:43:08.961Z,15.83
2018-11-04T03:45:38.476Z,15.03
2018-11-04T03:48:08.156Z,15.30
2018-11-04T03:50:37.648Z,14.38
2018-11-04T03:53:08.104Z,14.28
2018-11-04T03:55:38.405Z,16.07
2018-11-04T03:58:07.959Z,15.32
2018-11-04T04:00:37.481Z,14.85
2018-11-04T04:03:07.126Z,13.85
2018-11-04T04:05:36.580Z,14.63
2018-11-04T04:08:06.298Z,15.83
2018-11-04T04:10:35.904Z,14.28
2018-11-04T04:13:05.748Z,14.40
2018-11-04T04:15:35.374Z,15.40
2018-11-04T04:18:05.015Z,14.83
2018-11-04T04:20:34.632Z,14.63
2018-11-04T04:23:04.442Z,15.00
2018-11-04T04:25:33.913Z,16.35
2018-11-04T04:28:03.476Z,14.30
2018-11-04T04:30:33.012Z,12.53
2018-11-04T04:33:02.690Z,14.28
2018-11-04T04:35:32.230Z,14.55
2018-11-04T04:38:02.018Z,14.78
2018-11-04T04:40:31.722Z,12.80
2018-11-04T04:43:01.295Z,14.35
2018-11-04T04:45:31.102Z,13.25
2018-11-04T04:48:00.858Z,15.40
2018-11-04T04:50:30.499Z,14.78
2018-11-04T04:53:00.062Z,14.15
2018-11-04T04:55:29.591Z,12.68
2018-11-04T04:57:59.345Z,15.83
2018-11-04T05:00:28.878Z,13.75
2018-11-04T05:02:58.374Z,12.73
2018-11-04T05:05:27.853Z,14.25
2018-11-04T05:07:57.720Z,13.93
2018-11-04T05:10:27.377Z,13.43
2018-11-04T05:12:57.020Z,13.68
2018-11-04T05:15:26.534Z,14.95
2018-11-04T05:17:56.241Z,15.40
2018-11-04T05:20:25.781Z,14.90
2018-11-04T05:22:55.335Z,14.85
2018-11-04T05:25:25.114Z,14.58
2018-11-04T05:27:54.782Z,14.58
2018-11-04T05:30:24.484Z,13.27
2018-11-04T05:32:54.006Z,13.85
2018-11-04T05:35:23.651Z,14.20
2018-11-04T05:37:53.218Z,11.90
2018-11-04T05:40:22.810Z,13.98
2018-11-04T05:42:52.213Z,14.00
2018-11-04T05:45:22.102Z,13.73
2018-11-04T05:47:52.323Z,13.80
2018-11-04T05:50:23.781Z,14.35
2018-11-04T05:52:53.795Z,14.98
2018-11-04T05:55:25.003Z,14.00
2018-11-04T05:57:55.089Z,14.43
2018-11-04T06:00:24.744Z,13.57
2018-11-04T06:02:54.311Z,13.35
2018-11-04T06:05:23.987Z,14.63
2018-11-04T06:07:53.396Z,14.58
2018-11-04T06:10:23.238Z,13.75
2018-11-04T06:12:52.806Z,13.58
2018-11-04T06:15:22.470Z,13.40
2018-11-04T06:17:52.315Z,13.38
2018-11-04T06:20:22.018Z,14.58
2018-11-04T06:22:51.622Z,12.55
2018-11-04T06:25:21.059Z,13.30
2018-11-04T06:27:50.667Z,13.58
2018-11-04T06:30:20.898Z,13.47
2018-11-04T06:32:50.673Z,13.53
2018-11-04T06:35:20.678Z,13.32
2018-11-04T06:37:50.238Z,13.80
2018-11-04T06:40:19.728Z,14.28
2018-11-04T06:42:49.804Z,13.80
2018-11-04T06:45:19.502Z,13.63
2018-11-04T06:47:49.307Z,12.85
2018-11-04T06:50:18.979Z,14.15
2018-11-04T06:52:49.166Z,13.08
2018-11-04T06:55:19.200Z,15.03
2018-11-04T06:57:49.120Z,13.43
2018-11-04T07:00:19.023Z,14.13
2018-11-04T07:02:50.081Z,13.25
2018-11-04T07:05:19.912Z,14.18
2018-11-04T07:07:49.406Z,13.90
2018-11-04T07:10:18.921Z,14.18
2018-11-04T07:12:48.765Z,13.88
2018-11-04T07:15:18.982Z,14.23
2018-11-04T07:17:48.532Z,13.48
2018-11-04T07:20:18.101Z,13.65
2018-11-04T07:22:48.013Z,13.25
2018-11-04T07:25:17.598Z,13.38
2018-11-04T07:27:48.251Z,13.62
2018-11-04T07:30:19.578Z,13.93
2018-11-04T07:32:50.563Z,13.35
2018-11-04T07:35:20.269Z,14.55
2018-11-04T07:37:50.119Z,13.38
2018-11-04T07:40:20.022Z,13.45
2018-11-04T07:42:49.988Z,16.10
2018-11-04T07:45:19.585Z,14.10
2018-11-04T07:47:49.080Z,12.00
2018-11-04T07:50:18.879Z,12.78
2018-11-04T07:52:48.361Z,13.30
2018-11-04T07:55:17.817Z,12.03
2018-11-04T07:57:47.706Z,11.30
2018-11-04T08:00:17.571Z,13.03
2018-11-04T08:02:47.120Z,12.75
2018-11-04T08:05:16.796Z,13.43
2018-11-04T08:07:46.698Z,13.43
2018-11-04T08:10:16.473Z,12.25
2018-11-04T08:12:46.565Z,12.85
2018-11-04T08:15:16.462Z,14.33
2018-11-04T08:17:46.389Z,13.98
2018-11-04T08:20:16.586Z,16.02
2018-11-04T08:22:46.000Z,12.85
2018-11-04T08:25:15.405Z,14.28
2018-11-04T08:27:45.060Z,13.90
2018-11-04T08:30:14.477Z,12.80
2018-11-04T08:32:43.894Z,12.47
2018-11-04T08:35:13.409Z,12.60
2018-11-04T08:37:43.499Z,12.37
2018-11-04T08:40:13.301Z,13.05
2018-11-04T08:42:43.633Z,12.78
2018-11-04T08:45:13.860Z,13.60
2018-11-04T08:47:43.700Z,12.25
2018-11-04T08:50:13.756Z,13.03
2018-11-04T08:52:46.576Z,13.00
2018-11-04T08:55:16.381Z,12.98
2018-11-04T08:57:46.314Z,12.93
2018-11-04T09:00:17.141Z,12.00
2018-11-04T09:02:47.309Z,12.33
2018-11-04T09:05:16.849Z,12.20
2018-11-04T09:07:47.136Z,12.03
2018-11-04T09:10:17.854Z,12.07
2018-11-04T09:12:48.329Z,13.30
2018-11-04T09:15:17.844Z,12.23
2018-11-04T09:17:48.268Z,11.40
2018-11-04T09:20:18.761Z,12.23
2018-11-04T09:22:49.315Z,12.25
2018-11-04T09:25:18.969Z,11.83
2018-11-04T09:27:49.781Z,12.63
2018-11-04T09:30:19.345Z,12.85
2018-11-04T09:32:49.200Z,13.43
2018-11-04T09:35:19.454Z,12.45
2018-11-04T09:37:49.289Z,12.03
2018-11-04T09:40:19.365Z,11.45
2018-11-04T09:42:49.903Z,12.33
2018-11-04T09:45:20.025Z,11.50
2018-11-04T09:47:49.903Z,12.53
2018-11-04T09:50:19.665Z,12.10
2018-11-04T09:52:49.333Z,12.70
2018-11-04T09:55:18.907Z,11.65
2018-11-04T09:57:48.546Z,12.63
2018-11-04T10:00:18.035Z,12.50
2018-11-04T10:02:47.798Z,13.22
2018-11-04T10:05:17.335Z,11.20
2018-11-04T10:07:47.317Z,12.05
2018-11-04T10:10:17.255Z,13.20
2018-11-04T10:12:46.814Z,12.10
2018-11-04T10:15:16.488Z,13.07
2018-11-04T10:17:46.746Z,14.83
2018-11-04T10:20:17.700Z,12.90
2018-11-04T10:22:47.853Z,12.25
2018-11-04T10:25:17.814Z,13.15
2018-11-04T10:27:47.353Z,14.35
2018-11-04T10:30:17.788Z,13.37
2018-11-04T10:32:47.683Z,11.45
2018-11-04T10:35:17.120Z,11.60
2018-11-04T10:37:47.031Z,12.53
2018-11-04T10:40:16.633Z,13.00
2018-11-04T10:42:46.022Z,13.20
2018-11-04T10:45:15.589Z,12.87
2018-11-04T10:47:45.397Z,13.85
2018-11-04T10:50:15.103Z,13.72
2018-11-04T10:52:44.713Z,12.55
2018-11-04T10:55:14.284Z,11.22
2018-11-04T10:57:43.933Z,12.35
2018-11-04T11:00:19.072Z,13.20
2018-11-04T11:02:48.782Z,12.13
2018-11-04T11:05:18.511Z,12.00
2018-11-04T11:07:48.286Z,11.28
2018-11-04T11:10:17.751Z,12.10
2018-11-04T11:12:49.006Z,11.73
2018-11-04T11:15:18.825Z,11.77
2018-11-04T11:17:48.719Z,11.65
2018-11-04T11:20:18.652Z,10.78
2018-11-04T11:22:48.546Z,13.28
2018-11-04T11:25:18.759Z,13.10
2018-11-04T11:27:48.365Z,10.58
2018-11-04T11:30:18.320Z,11.37
2018-11-04T11:32:47.999Z,11.10
2018-11-04T11:35:17.950Z,22.30
2018-11-04T11:37:47.800Z,11.15
2018-11-04T11:40:17.937Z,11.70
2018-11-04T11:42:47.843Z,12.60
2018-11-04T11:45:17.835Z,12.43
2018-11-04T11:47:47.742Z,11.50
2018-11-04T11:50:17.307Z,11.68
2018-11-04T11:52:46.935Z,10.78
2018-11-04T11:55:16.781Z,11.15
2018-11-04T11:57:46.695Z,11.55
2018-11-04T12:00:16.445Z,12.23
2018-11-04T12:02:46.080Z,11.88
2018-11-04T12:05:15.554Z,11.88
2018-11-04T12:07:45.326Z,12.58
2018-11-04T12:10:15.363Z,10.53
2018-11-04T12:12:45.412Z,12.13
2018-11-04T12:15:15.242Z,11.40
2018-11-04T12:17:44.812Z,12.90
2018-11-04T12:20:14.564Z,11.48
2018-11-04T12:22:44.187Z,12.55
2018-11-04T12:25:14.297Z,15.18
2018-11-04T12:27:43.809Z,12.23
2018-11-04T12:30:14.761Z,12.10
2018-11-04T12:32:44.231Z,14.00
2018-11-04T12:35:14.415Z,12.80
2018-11-04T12:37:44.157Z,12.05
2018-11-04T12:40:14.333Z,11.33
2018-11-04T12:42:43.909Z,12.98
2018-11-04T12:45:14.532Z,14.43
2018-11-04T12:47:44.553Z,10.95
2018-11-04T12:50:14.593Z,11.78
2018-11-04T12:52:44.325Z,12.33
2018-11-04T12:55:14.327Z,13.43
2018-11-04T12:57:44.340Z,14.85
2018-11-04T13:00:15.541Z,12.30
2018-11-04T13:02:46.109Z,12.00
2018-11-04T13:05:15.739Z,13.60
2018-11-04T13:07:45.692Z,14.60
2018-11-04T13:10:15.487Z,15.35
2018-11-04T13:12:45.195Z,15.70
2018-11-04T13:15:15.416Z,14.83
2018-11-04T13:17:44.951Z,13.05
2018-11-04T13:20:14.483Z,13.85
2018-11-04T13:22:44.064Z,12.07
2018-11-04T13:25:14.271Z,13.00
2018-11-04T13:27:44.324Z,11.53
2018-11-04T13:30:14.812Z,15.00
2018-11-04T13:32:44.376Z,13.95
2018-11-04T13:35:14.173Z,14.87
2018-11-04T13:37:43.814Z,13.48
2018-11-04T13:40:13.489Z,13.88
2018-11-04T13:42:43.106Z,14.87
2018-11-04T13:45:12.841Z,17.93
2018-11-04T13:47:42.997Z,14.73
2018-11-04T13:50:14.107Z,18.90
2018-11-04T13:52:44.749Z,13.88
2018-11-04T13:55:15.176Z,16.23
2018-11-04T13:57:44.674Z,13.72
2018-11-04T14:00:16.600Z,15.53
2018-11-04T14:02:48.283Z,14.98
2018-11-04T14:05:18.248Z,14.73
2018-11-04T14:07:48.148Z,14.30
2018-11-04T14:10:18.016Z,15.18
2018-11-04T14:12:48.024Z,17.92
2018-11-04T14:15:18.198Z,14.30
2018-11-04T14:17:47.950Z,15.63
2018-11-04T14:20:17.670Z,13.60
2018-11-04T14:22:47.349Z,14.47
2018-11-04T14:25:16.918Z,16.25
2018-11-04T14:27:46.498Z,15.38
2018-11-04T14:30:16.465Z,16.67
2018-11-04T14:32:46.134Z,13.95
2018-11-04T14:35:15.855Z,14.85
2018-11-04T14:37:45.396Z,20.75
2018-11-04T14:40:16.522Z,18.77
2018-11-04T14:42:46.408Z,14.15
2018-11-04T14:45:16.002Z,18.83
2018-11-04T14:47:47.562Z,17.02
2018-11-04T14:50:18.849Z,18.87
2018-11-04T14:52:49.972Z,16.57
2018-11-04T14:55:20.582Z,16.23
2018-11-04T14:57:50.915Z,16.35
2018-11-04T15:00:20.590Z,15.80
2018-11-04T15:02:50.521Z,15.35
2018-11-04T15:05:20.093Z,16.15
2018-11-04T15:07:50.089Z,16.12
2018-11-04T15:10:19.856Z,16.62
2018-11-04T15:12:49.332Z,17.60
2018-11-04T15:15:19.561Z,16.73
2018-11-04T15:17:49.073Z,18.25
2018-11-04T15:20:18.619Z,18.90
2018-11-04T15:22:49.522Z,16.65
2018-11-04T15:25:20.241Z,17.23
2018-11-04T15:27:49.886Z,16.93
2018-11-04T15:30:19.600Z,18.07
2018-11-04T15:32:49.348Z,19.45
2018-11-04T15:35:19.252Z,15.53
2018-11-04T15:37:49.007Z,17.17
2018-11-04T15:40:20.123Z,17.27
2018-11-04T15:42:53.106Z,19.70
2018-11-04T15:45:23.994Z,16.33
2018-11-04T15:47:54.431Z,17.62
2018-11-04T15:50:25.353Z,18.77
2018-11-04T15:52:55.936Z,16.20
2018-11-04T15:55:28.286Z,18.12
2018-11-04T15:57:58.614Z,15.93
2018-11-04T16:00:29.016Z,16.45
2018-11-04T16:02:58.975Z,19.00
2018-11-04T16:05:30.023Z,17.25
2018-11-04T16:08:01.946Z,18.92
2018-11-04T16:10:31.753Z,21.05
2018-11-04T16:13:02.862Z,20.70
2018-11-04T16:15:33.362Z,19.50
2018-11-04T16:18:03.100Z,16.80
2018-11-04T16:20:34.311Z,18.37
2018-11-04T16:23:05.054Z,17.87
2018-11-04T16:25:34.896Z,16.93
2018-11-04T16:28:04.409Z,19.48
2018-11-04T16:30:34.747Z,18.25
2018-11-04T16:33:04.889Z,16.77
2018-11-04T16:35:37.097Z,20.72
2018-11-04T16:38:07.502Z,18.30
2018-11-04T16:40:37.254Z,18.92
2018-11-04T16:43:07.625Z,21.50
2018-11-04T16:45:37.530Z,19.15
2018-11-04T16:48:07.270Z,19.95
2018-11-04T16:50:37.593Z,16.75
2018-11-04T16:53:07.573Z,18.10
2018-11-04T16:55:37.303Z,19.32
2018-11-04T16:58:07.073Z,20.72
2018-11-04T17:00:36.566Z,21.27
2018-11-04T17:03:07.570Z,21.87
2018-11-04T17:05:37.508Z,18.12
2018-11-04T17:08:07.358Z,18.92
2018-11-04T17:10:36.925Z,19.85
2018-11-04T17:13:07.214Z,18.07
2018-11-04T17:15:37.044Z,17.75
2018-11-04T17:18:06.936Z,18.92
2018-11-04T17:20:36.808Z,17.60
2018-11-04T17:23:06.801Z,17.57
2018-11-04T17:25:36.487Z,21.33
2018-11-04T17:28:06.881Z,20.55
2018-11-04T17:30:37.566Z,16.17
2018-11-04T17:33:07.224Z,18.60
2018-11-04T17:35:37.528Z,19.50
2018-11-04T17:38:07.132Z,18.82
2018-11-04T17:40:37.413Z,19.23
2018-11-04T17:43:08.303Z,22.65
2018-11-04T17:45:38.015Z,22.07
2018-11-04T17:48:07.975Z,20.90
2018-11-04T17:50:38.158Z,18.67
2018-11-04T17:53:07.957Z,19.15
2018-11-04T17:55:37.501Z,17.87
2018-11-04T17:58:07.247Z,18.90
2018-11-04T18:00:36.909Z,17.00
2018-11-04T18:03:07.482Z,17.55
2018-11-04T18:05:37.234Z,17.87
2018-11-04T18:08:06.959Z,17.35
2018-11-04T18:10:36.688Z,17.82
2018-11-04T18:13:06.442Z,18.80
2018-11-04T18:15:36.123Z,18.25
2018-11-04T18:18:05.998Z,17.50
2018-11-04T18:20:36.497Z,15.35
2018-11-04T18:23:06.208Z,17.00
2018-11-04T18:25:36.029Z,19.40
2018-11-04T18:28:05.704Z,20.40
2018-11-04T18:30:36.571Z,19.10
2018-11-04T18:33:06.821Z,19.42
2018-11-04T18:35:36.697Z,19.65
2018-11-04T18:38:06.446Z,20.95
2018-11-04T18:40:36.263Z,25.37
2018-11-04T18:43:06.297Z,19.60
2018-11-04T18:45:36.195Z,20.25
2018-11-04T18:48:06.652Z,18.10
2018-11-04T18:50:36.484Z,17.23
2018-11-04T18:53:07.161Z,17.95
2018-11-04T18:55:36.744Z,20.43
2018-11-04T18:58:06.831Z,20.92
2018-11-04T19:00:36.848Z,26.93
2018-11-04T19:03:06.813Z,21.70
2018-11-04T19:05:36.735Z,19.05
2018-11-04T19:08:07.378Z,19.95
2018-11-04T19:10:36.886Z,19.37
2018-11-04T19:13:06.508Z,20.27
2018-11-04T19:15:36.056Z,19.55
2018-11-04T19:18:05.920Z,20.32
2018-11-04T19:20:35.567Z,23.30
2018-11-04T19:23:06.599Z,18.90
2018-11-04T19:25:36.249Z,20.17
2018-11-04T19:28:06.116Z,23.50
2018-11-04T19:30:35.681Z,22.93
2018-11-04T19:33:05.420Z,22.80
2018-11-04T19:35:35.183Z,19.05
2018-11-04T19:38:05.190Z,20.17
2018-11-04T19:40:36.963Z,21.02
2018-11-04T19:43:06.756Z,20.57
2018-11-04T19:45:36.335Z,22.75
2018-11-04T19:48:06.295Z,20.43
2018-11-04T19:50:35.922Z,19.05
2018-11-04T19:53:06.375Z,20.43
2018-11-04T19:55:36.269Z,22.60
2018-11-04T19:58:06.835Z,23.27
2018-11-04T20:00:36.709Z,23.62
2018-11-04T20:03:06.355Z,26.62
2018-11-04T20:05:36.080Z,24.40
2018-11-04T20:08:06.637Z,24.92
2018-11-04T20:10:36.459Z,22.22
2018-11-04T20:13:11.925Z,26.12
2018-11-04T20:15:41.546Z,26.33
2018-11-04T20:18:16.501Z,27.77
2018-11-04T20:20:45.942Z,27.00
2018-11-04T20:23:15.627Z,29.20
2018-11-04T20:25:50.402Z,30.55
2018-11-04T20:28:19.897Z,28.23
2018-11-04T20:30:49.634Z,30.80
2018-11-04T20:33:19.729Z,33.33
2018-11-04T20:35:50.349Z,32.13
2018-11-04T20:38:24.411Z,39.08
2018-11-04T20:40:59.380Z,33.60
2018-11-04T20:43:29.101Z,36.45
2018-11-04T20:45:59.465Z,33.42
2018-11-04T20:48:34.266Z,36.03
2018-11-04T20:51:06.311Z,38.42
2018-11-04T20:53:36.609Z,38.40
2018-11-04T20:56:11.728Z,33.70
2018-11-04T20:58:41.806Z,37.48
2018-11-04T21:01:11.314Z,37.63
2018-11-04T21:03:41.640Z,36.48
2018-11-04T21:06:11.763Z,33.75
2018-11-04T21:08:42.071Z,39.58
2018-11-04T21:11:12.448Z,37.90
2018-11-04T21:13:42.665Z,36.77
2018-11-04T21:16:13.003Z,33.02
2018-11-04T21:18:43.037Z,38.63
2018-11-04T21:21:14.486Z,40.35
2018-11-04T21:23:44.501Z,32.30
2018-11-04T21:26:14.956Z,39.73
2018-11-04T21:28:44.809Z,37.65
2018-11-04T21:31:14.601Z,38.08
2018-11-04T21:33:44.131Z,38.53
2018-11-04T21:36:14.055Z,37.40
2018-11-04T21:38:44.021Z,36.13
2018-11-04T21:41:13.640Z,36.00
2018-11-04T21:43:44.001Z,40.73
2018-11-04T21:46:13.469Z,41.13
2018-11-04T21:48:44.401Z,36.58
2018-11-04T21:51:16.327Z,40.73
2018-11-04T21:53:46.002Z,44.50
2018-11-04T21:56:22.845Z,38.63
2018-11-04T21:58:53.255Z,37.73
2018-11-04T22:01:23.484Z,37.98
2018-11-04T22:03:53.837Z,39.95
2018-11-04T22:06:23.499Z,38.28
2018-11-04T22:08:53.550Z,37.65
2018-11-04T22:11:24.428Z,37.90
2018-11-04T22:13:54.657Z,37.63
2018-11-04T22:16:24.515Z,37.58
2018-11-04T22:18:54.458Z,37.08
2018-11-04T22:21:24.241Z,35.73
2018-11-04T22:23:54.857Z,37.88
2018-11-04T22:26:25.498Z,40.35
2018-11-04T22:28:55.748Z,39.45
2018-11-04T22:31:25.771Z,32.25
2018-11-04T22:33:56.207Z,35.25
2018-11-04T22:36:26.516Z,34.63
2018-11-04T22:38:56.268Z,34.35
2018-11-04T22:41:26.101Z,31.62
2018-11-04T22:43:56.035Z,34.80
2018-11-04T22:46:26.383Z,34.40
2018-11-04T22:48:56.138Z,38.48
2018-11-04T22:51:26.332Z,37.83
2018-11-04T22:53:57.414Z,34.03
2018-11-04T22:56:28.302Z,32.88
2018-11-04T22:58:58.657Z,33.48
2018-11-04T23:01:29.181Z,33.25
2018-11-04T23:04:00.247Z,33.83
2018-11-04T23:06:30.819Z,33.40
2018-11-04T23:09:01.919Z,38.83
2018-11-04T23:11:31.870Z,33.23
2018-11-04T23:14:02.049Z,31.05
2018-11-04T23:16:31.753Z,30.97
2018-11-04T23:19:02.592Z,29.55
2018-11-04T23:21:34.495Z,30.50
2018-11-04T23:24:05.237Z,30.20
2018-11-04T23:26:35.451Z,29.07
2018-11-04T23:29:06.814Z,23.87
2018-11-04T23:31:37.261Z,24.50
2018-11-04T23:34:07.703Z,24.85
2018-11-04T23:36:37.493Z,27.52
2018-11-04T23:39:10.230Z,25.95
2018-11-04T23:41:41.619Z,26.10
2018-11-04T23:44:12.535Z,24.40
2018-11-04T23:46:45.561Z,26.87
2018-11-04T23:49:15.541Z,23.60
2018-11-04T23:51:45.995Z,25.37
2018-11-04T23:54:15.849Z,25.15
2018-11-04T23:56:45.729Z,21.37
2018-11-04T23:59:15.738Z,22.60
